Aviation Digital Data Service (ADDS)

Output produced by METARs form (0244 UTC 24 July 2017)
found at http://www.aviationweather.gov/adds/metars/
 
KCAE 240222Z 2402/2424 22009KT P6SM -SHRA SCT015 BKN040 
     FM240300 23006KT P6SM SCT030 BKN150 
     FM240800 VRB04KT P6SM SCT015 
     FM241800 25008KT P6SM BKN050
       
KCAK 232330Z 2400/2424 25005KT P6SM -TSRA SCT035CB BKN090 
     FM240200 VRB03KT P6SM VCTS SCT029CB BKN150 
     FM240400 VRB03KT P6SM SCT025 
     FM240500 26004KT 6SM BR SCT025 
     FM241100 26005KT 4SM BR SCT040 BKN150 
     FM241300 28006KT P6SM BKN035 
     FM242000 29008KT P6SM SCT045
       
KCAR 232320Z 2400/2424 VRB03KT P6SM FEW070 SCT250
       
TAF AMD KCBM 232149Z 2321/2423 23009KT 9999 SCT040 QNH2982INS 
     TEMPO 2322/2324 8000 -TSRA SCT040CB 
     BECMG 2405/2406 VRB06KT 9999 BKN030 QNH2991INS 
     BECMG 2408/2409 VRB06KT 9999 SCT015 BKN020 QNH2993INS 
     BECMG 2415/2416 27009KT 9999 BKN040 QNH2995INS 
     BECMG 2420/2421 27012KT 9000 -SHRA BKN030 QNH2995INS 
     TEMPO 2420/2423 VRB15G25KT 9000 -TSRA BKN020CB TX34/2321Z TN24/2411Z LAST NO AMDS AFT 2321 NEXT 2409
       
KCDC 232326Z 2400/2424 13011KT P6SM VCSH SCT080 BKN150 
     FM240300 19007KT P6SM FEW080 BKN160 
     FM241800 14015G22KT P6SM VCTS SCT070CB BKN120
       
KCDR 232322Z 2400/2424 14009KT P6SM FEW100 
     FM240400 16015G23KT P6SM SKC 
     FM241100 19011KT P6SM SKC 
     FM241800 21016G24KT P6SM SKC
       
KCDS 240006Z 2400/2424 13008KT P6SM VCTS SCT080CB BKN120 
     FM240100 15006KT P6SM SCT080
       
KCEC 232346Z 2400/2424 18007KT P6SM SKC 
     FM240300 14010G18KT 6SM BR SCT005 
     FM240800 VRB04KT 6SM BR BKN003 
     FM241200 VRB03KT 2SM BR OVC002 
     FM241900 27011KT P6SM SCT006
       
TAF KCEF 240200Z 2402/2508 VRB06KT 9999 FEW030 BKN100 QNH2987INS 
     BECMG 2407/2408 05012G18KT 8000 -SHRA OVC018 QNH2989INS 
     BECMG 2416/2417 04012G18KT 9999 NSW OVC012 QNH2989INS 
     BECMG 2423/2424 VRB06KT 9999 OVC010 QNH2991INS TX23/2402Z TN15/2410Z LAST NO AMDS AFT 2403 NEXT 2410
       
KCGI 232322Z 2400/2424 VRB03KT P6SM SCT250 
     FM240800 00000KT 2SM BR SCT200 
     FM241300 36004KT P6SM FEW030
       
KCHA 232323Z 2400/2424 VRB03KT P6SM SCT030 BKN150 
     TEMPO 2403/2407 4SM -TSRA BKN025CB 
     FM240700 36003KT 6SM BR SCT025 OVC050 
     FM241300 VRB03KT P6SM SCT050 BKN150
       
KCHO 232327Z 2400/2424 21004KT P6SM FEW060 BKN120 
     FM240200 VRB03KT P6SM VCTS BKN070CB 
     FM240600 VRB03KT 4SM BR BKN090 
     FM241100 25004KT 3SM BR SCT250 
     FM241300 25004KT P6SM SCT250
       
KCHS 240133Z 2402/2424 22008KT P6SM FEW025 SCT060 BKN150 
     FM240500 23007KT P6SM VCTS SCT025CB BKN050 
     FM240800 24007KT P6SM FEW025 SCT050 BKN250 
     FM241700 21012G17KT P6SM SCT035 BKN060
       
KCID 232320Z 2400/2424 35009KT P6SM SKC 
     FM240900 03005KT P6SM SKC 
     FM241500 05008KT P6SM FEW040
       
KCKB 232330Z 2400/2424 24009KT P6SM BKN040 
     FM240300 23005KT 5SM +SHRA VCTS BKN010CB 
     FM240500 23004KT 5SM BR BKN010 
     FM241500 25006KT P6SM BKN035
       
KCKV 232320Z 2400/2424 30007KT P6SM SCT040 
     FM240700 32003KT 5SM BR FEW050 SCT150 
     FM240900 00000KT 2SM BR FEW150 
     FM241200 22004KT P6SM SCT040
       
KCLE 240238Z 2403/2506 31005KT P6SM SCT120 
     FM241300 29008KT P6SM BKN040 
     FM241800 31011KT P6SM SCT035
       
KCLL 232330Z 2400/2424 17011KT P6SM VCTS FEW035CB FEW070 BKN250 
     FM240300 19006KT P6SM SCT180 BKN250 
     FM241300 21009KT P6SM FEW025 SCT250 
     FM241800 18010KT P6SM FEW060
       
KCLM 232320Z 2400/2424 32012KT P6SM SKC 
     FM241300 26006KT P6SM SCT005 
     FM241700 33008KT P6SM SKC
       
KCLT 232320Z 2400/2424 20009KT P6SM BKN060 
     FM240600 21004KT P6SM SCT110 BKN250 
     FM241500 23006KT P6SM SCT050 BKN250 
     PROB30 2417/2423 4SM -TSRA BKN040CB
       
KCMA 232333Z 2400/2424 23008KT P6SM SKC 
     FM240600 VRB03KT 6SM BR OVC007 
     FM241800 23007KT P6SM SKC
       
KCMH 232320Z 2400/2424 23006KT P6SM VCSH BKN045 
     TEMPO 2400/2402 29020G30KT 2SM TSRA BR BKN025CB 
     FM240200 30004KT P6SM SCT150 
     FM240700 VRB03KT 5SM BR SCT250 
     FM241000 27004KT 2SM BR SCT250 
     FM241300 28005KT P6SM SCT030 
     FM242200 34008KT P6SM SCT050
       
KCMI 232321Z 2400/2424 27006KT P6SM VCTS SCT050CB 
     FM240300 30004KT P6SM FEW040 FEW250 
     TEMPO 2409/2413 4SM BR 
     FM241300 35005KT P6SM FEW050
       
KCMX 232334Z 2400/2424 09007KT P6SM BKN035 
     FM240300 03005KT P6SM SCT150 
     FM241300 29003KT P6SM FEW130 
     FM242200 02003KT P6SM SKC
       
KCNM 232321Z 2400/2424 15008KT P6SM FEW120 BKN200 
     FM240900 28004KT P6SM BKN200
       
KCNU 232320Z 2400/2424 05005KT P6SM SKC
       
KCNY 240223Z 2402/2424 16015G25KT P6SM FEW110 SCT250 
     FM240300 15012KT P6SM SCT250 
     FM240500 14005KT P6SM BKN200 
     FM242000 24010KT P6SM VCSH SCT100 BKN150
       
KCOD 232326Z 2400/2424 34006KT P6SM VCSH BKN120 
     TEMPO 2400/2401 VRB15G25KT 
     FM240200 21006KT P6SM SCT110 
     FM241700 01006KT P6SM SCT100 BKN150 AMD LTD TO CLD VIS AND WIND
       
KCOE 232320Z 2400/2424 25014G20KT P6SM FEW060 FEW200 
     FM240300 23008KT P6SM SKC 
     FM240800 35010G18KT P6SM SKC 
     FM241200 03008KT P6SM SKC 
     FM242100 28008KT P6SM FEW070
       
TAF KCOF 231800Z 2318/2424 27008KT 9999 VCTS SCT030CB BKN100 QNH3006INS 
     TEMPO 2318/2321 24015G25KT 6000 -TSRA SCT030CB BKN150 
     BECMG 2322/2323 19008KT 9000 -SHRA VCTS SCT035CB BKN150 QNH3000INS 
     BECMG 2401/2402 20006KT 9999 NSW FEW060 SCT100 QNH3002INS 
     TEMPO 2418/2421 16015G25KT 6000 -TSRA SCT030CB BKN150 
     BECMG 2422/2423 15010KT 9000 -SHRA VCTS SCT035CB BKN220 QNH3001INS TX31/2418Z TN24/2407Z LAST NO AMDS AFT 2321 NEXT 2410 FCST BY USAF WX MET TECH
       
KCON 232320Z 2400/2424 00000KT P6SM SCT120 SCT250 
     FM241100 05005KT P6SM SCT015 BKN040 
     FM241300 05006KT P6SM -RA OVC015 
     FM241800 08013G20KT P6SM -RA OVC015 
     FM242200 06010KT 4SM BR OVC008
       
KCOS 240136Z 2402/2424 13008KT P6SM SCT120 BKN200 
     FM240800 06006KT P6SM FEW200 
     FM241600 15008KT P6SM FEW100 SCT200 
     FM242000 17014KT P6SM VCTS SCT090CB BKN200
       
KCOU 232320Z 2400/2424 30005KT P6SM FEW060 
     FM240500 01005KT P6SM FEW250 
     FM241700 02005KT P6SM FEW050
       
KCPS 232320Z 2400/2424 28006KT P6SM SCT250 
     FM240200 32005KT P6SM FEW070 
     FM242200 02005KT P6SM FEW070
       
KCRE 232343Z 2400/2424 22014G20KT P6SM SCT015 BKN100 
     FM240500 22007KT P6SM SCT090 BKN200 
     FM241300 22011KT P6SM VCTS FEW025CB BKN050 
     FM241700 21013G18KT P6SM VCTS SCT030CB BKN045 
     TEMPO 2417/2421 3SM TSRA SCT015 BKN025CB OVC040
       
KCRG 240037Z 2401/2424 23015KT P6SM FEW035 SCT150 BKN250 
     FM240300 VRB03KT P6SM FEW020 SCT100 SCT250 
     FM241300 23007KT P6SM VCSH SCT040 SCT080 BKN250 
     FM241500 22009KT P6SM VCTS SCT025 BKN040CB 
     PROB30 2417/2421 VRB15G25KT -TSRA SCT015 BKN025CB
       
KCRP 232329Z 2400/2424 15017G24KT P6SM FEW250 
     FM240300 16013KT P6SM FEW250 
     FM241000 17008KT P6SM FEW020 SCT250 
     FM241400 16015G24KT P6SM FEW025 SCT150 
     FM241900 14020G28KT P6SM FEW040 SCT250
       
KCRQ 232332Z 2400/2424 VRB04KT P6SM SCT010 
     FM240100 VRB04KT P6SM BKN010 
     FM241600 VRB04KT P6SM FEW012 SCT150 
     FM242000 25008KT P6SM SCT100
       
KCRW 232330Z 2400/2424 24004KT P6SM FEW050 BKN120 
     FM240600 VRB03KT P6SM BKN040 
     FM240900 00000KT 3SM BR BKN015 
     FM241300 25004KT P6SM BKN035 
     FM241700 25004KT P6SM SCT080
       
KCSG 232337Z 2400/2424 26007KT P6SM VCSH BKN050 
     FM240300 24004KT P6SM SCT250 
     FM241500 25005KT P6SM SCT040 
     FM241700 26007KT P6SM VCSH SCT050 
     PROB30 2417/2423 4SM TSRA BKN035CB
       
KCSM 232320Z 2400/2424 08010KT P6SM VCTS BKN090CB OVC250 
     FM240200 10006KT P6SM SCT060 BKN250
       
KCSV 232320Z 2400/2424 22006KT P6SM SCT050 
     FM240100 26005KT P6SM VCTS SCT040CB 
     FM240600 26003KT 5SM BR SCT050 BKN150 
     FM241000 00000KT 2SM BR SCT150 
     FM241300 28005KT P6SM BKN250
       
KCTB 232320Z 2400/2424 25015G22KT P6SM FEW090 FEW250 
     FM240300 25008KT P6SM SCT090 SCT250 
     FM240800 31015G20KT P6SM SCT050 SCT250 
     FM241600 VRB06KT P6SM FEW090 FEW250
       
KCUB 240223Z 2402/2424 22009KT P6SM -SHRA SCT015 BKN050 
     FM240400 23004KT P6SM SCT050 BKN150 
     FM240800 VRB04KT P6SM SCT015 
     FM241800 25008KT P6SM BKN050
       
KCVG 232320Z 2400/2506 26006KT P6SM VCSH SCT035 BKN080 
     FM240200 25005KT P6SM SCT040 
     FM240700 23004KT 5SM BR SCT250 
     TEMPO 2408/2412 2SM BR 
     FM241400 27005KT P6SM SCT035 
     FM241800 31008KT P6SM SCT050
       
TAF KCVS 240206Z 2402/2508 30009KT 9999 BKN070 BKN100 QNH3008INS 
     TEMPO 2402/2407 9000 -SHRA 
     BECMG 2406/2407 VRB06KT 9999 BKN060 BKN100 QNH3012INS 
     BECMG 2419/2420 18012KT 9999 VCTS BKN050CB QNH3005INS 
     TEMPO 2422/2501 VRB20G30KT -TSRA 
     BECMG 2502/2503 16012KT 9999 NSW OVC060 QNH3007INS TX30/2422Z TN18/2412Z
       
KCWA 232339Z 2400/2424 34009G16KT P6SM SCT035 BKN060 
     TEMPO 2400/2403 BKN035 
     FM240900 02005KT 6SM BR SCT035 
     FM241000 03005KT 5SM BR SCT026 
     FM241200 03005KT P6SM SCT017 
     FM241400 06005KT P6SM SCT100 
     FM242100 12004KT P6SM FEW060
       
KCXO 232330Z 2400/2424 18009KT P6SM FEW060 BKN250 
     FM240900 23003KT P6SM FEW025 BKN250 
     FM241300 20006KT P6SM BKN025 
     FM241600 21011KT P6SM SCT035 
     FM241900 20010KT P6SM FEW050 SCT150
       
KCXP 240112Z 2401/2424 26010G18KT P6SM SCT110 
     FM240500 VRB04KT P6SM VCSH BKN100 
     FM240800 VRB03KT P6SM FEW100 
     FM242100 27007G15KT P6SM SCT120
       
KCYS 232322Z 2400/2424 18010G18KT P6SM FEW090 BKN250 
     FM240200 18009KT P6SM SKC 
     FM240700 25008KT P6SM SKC